createdAt,value
2023-01-08T00:01:21.951Z,99534.00
2023-01-08T00:03:50.148Z,99536.00
2023-01-08T00:06:19.766Z,99529.00
2023-01-08T00:08:47.518Z,99515.00
2023-01-08T00:11:16.014Z,99515.00
2023-01-08T00:13:43.903Z,99509.00
2023-01-08T00:16:14.957Z,99514.00
2023-01-08T00:18:43.242Z,99517.00
2023-01-08T00:21:11.266Z,99516.00
2023-01-08T00:23:39.323Z,99513.00
2023-01-08T00:26:11.145Z,99506.00
2023-01-08T00:28:39.261Z,99528.00
2023-01-08T00:31:11.902Z,99514.00
2023-01-08T00:33:40.663Z,99517.00
2023-01-08T00:36:11.249Z,99513.00
2023-01-08T00:38:39.288Z,99510.00
2023-01-08T00:41:07.631Z,99527.00
2023-01-08T00:43:35.650Z,99512.00
2023-01-08T00:46:04.214Z,99496.00
2023-01-08T00:48:33.689Z,99490.00
2023-01-08T00:51:03.571Z,99498.00
2023-01-08T00:53:31.331Z,99505.00
2023-01-08T00:56:04.026Z,99494.00
2023-01-08T00:58:31.941Z,99486.00
2023-01-08T01:01:00.651Z,99480.00
2023-01-08T01:03:28.556Z,99477.00
2023-01-08T01:06:08.529Z,99483.00
2023-01-08T01:08:36.532Z,99487.00
2023-01-08T01:11:15.436Z,99472.00
2023-01-08T01:13:43.235Z,99470.00
2023-01-08T01:16:11.245Z,99478.00
2023-01-08T01:18:39.121Z,99467.00
2023-01-08T01:21:28.158Z,99473.00
2023-01-08T01:23:57.908Z,99473.00
2023-01-08T01:26:27.115Z,99480.00
2023-01-08T01:28:56.887Z,99485.00
2023-01-08T01:31:26.377Z,99487.00
2023-01-08T01:33:54.154Z,99486.00
2023-01-08T01:36:25.599Z,99479.00
2023-01-08T01:38:55.648Z,99480.00
2023-01-08T01:41:27.832Z,99471.00
2023-01-08T01:43:57.978Z,99458.00
2023-01-08T01:46:36.269Z,99457.00
2023-01-08T01:49:08.301Z,99463.00
2023-01-08T01:51:37.068Z,99466.00
2023-01-08T01:54:08.191Z,99457.00
2023-01-08T01:56:35.977Z,99460.00
2023-01-08T01:59:04.048Z,99452.00
2023-01-08T02:01:32.569Z,99458.00
2023-01-08T02:04:00.697Z,99455.00
2023-01-08T02:06:32.564Z,99459.00
2023-01-08T02:09:11.772Z,99450.00
2023-01-08T02:11:42.206Z,99451.00
2023-01-08T02:14:19.922Z,99438.00
2023-01-08T02:16:47.764Z,99427.00
2023-01-08T02:19:24.219Z,99436.00
2023-01-08T02:22:16.267Z,99427.00
2023-01-08T02:24:55.991Z,99435.00
2023-01-08T02:27:25.907Z,99435.00
2023-01-08T02:29:54.769Z,99444.00
2023-01-08T02:32:33.804Z,99441.00
2023-01-08T02:35:01.674Z,99440.00
2023-01-08T02:37:29.622Z,99436.00
2023-01-08T02:40:27.682Z,99437.00
2023-01-08T02:43:14.522Z,99441.00
2023-01-08T02:45:53.250Z,99446.00
2023-01-08T02:48:36.160Z,99447.00
2023-01-08T02:51:33.369Z,99436.00
2023-01-08T02:54:04.772Z,99437.00
2023-01-08T02:56:35.004Z,99422.00
2023-01-08T02:59:05.395Z,99422.00
2023-01-08T03:01:35.142Z,99430.00
2023-01-08T03:04:16.293Z,99434.00
2023-01-08T03:06:44.888Z,99426.00
2023-01-08T03:09:13.201Z,99431.00
2023-01-08T03:12:21.568Z,99420.00
2023-01-08T03:14:56.662Z,99434.00
2023-01-08T03:17:37.841Z,99426.00
2023-01-08T03:20:21.392Z,99427.00
2023-01-08T03:22:52.412Z,99423.00
2023-01-08T03:25:22.565Z,99419.00
2023-01-08T03:27:58.329Z,99427.00
2023-01-08T03:30:26.863Z,99420.00
2023-01-08T03:32:56.570Z,99418.00
2023-01-08T03:35:25.475Z,99408.00
2023-01-08T03:38:03.960Z,99414.00
2023-01-08T03:40:37.421Z,99418.00
2023-01-08T03:43:05.219Z,99414.00
2023-01-08T03:45:33.540Z,99416.00
2023-01-08T03:48:02.430Z,99410.00
2023-01-08T03:50:31.830Z,99405.00
2023-01-08T03:53:00.994Z,99412.00
2023-01-08T03:55:29.024Z,99414.00
2023-01-08T03:57:56.873Z,99401.00
2023-01-08T04:00:24.697Z,99399.00
2023-01-08T04:02:52.567Z,99404.00
2023-01-08T04:05:20.582Z,99403.00
2023-01-08T04:07:48.426Z,99393.00
2023-01-08T04:10:16.365Z,99411.00
2023-01-08T04:12:44.738Z,99409.00
2023-01-08T04:15:12.725Z,99396.00
2023-01-08T04:17:40.428Z,99393.00
2023-01-08T04:20:08.882Z,99394.00
2023-01-08T04:22:36.822Z,99386.00
2023-01-08T04:25:05.037Z,99381.00
2023-01-08T04:27:32.984Z,99374.00
2023-01-08T04:30:00.827Z,99375.00
2023-01-08T04:32:28.672Z,99386.00
2023-01-08T04:34:56.775Z,99380.00
2023-01-08T04:37:24.762Z,99372.00
2023-01-08T04:39:52.598Z,99367.00
2023-01-08T04:42:20.362Z,99367.00
2023-01-08T04:44:48.091Z,99364.00
2023-01-08T04:47:16.787Z,99363.00
2023-01-08T04:49:44.738Z,99371.00
2023-01-08T04:52:12.545Z,99380.00
2023-01-08T04:54:40.238Z,99372.00
2023-01-08T04:57:08.060Z,99374.00
2023-01-08T04:59:36.122Z,99360.00
2023-01-08T05:02:04.035Z,99359.00
2023-01-08T05:04:31.904Z,99353.00
2023-01-08T05:06:59.637Z,99347.00
2023-01-08T05:09:29.471Z,99335.00
2023-01-08T05:11:57.404Z,99335.00
2023-01-08T05:14:25.307Z,99332.00
2023-01-08T05:16:53.182Z,99335.00
2023-01-08T05:19:20.907Z,99339.00
2023-01-08T05:21:48.651Z,99335.00
2023-01-08T05:24:16.578Z,99325.00
2023-01-08T05:26:44.559Z,99344.00
2023-01-08T05:29:12.493Z,99337.00
2023-01-08T05:31:40.303Z,99335.00
2023-01-08T05:34:08.228Z,99335.00
2023-01-08T05:36:38.522Z,99338.00
2023-01-08T05:39:06.377Z,99335.00
2023-01-08T05:41:34.262Z,99340.00
2023-01-08T05:44:02.162Z,99327.00
2023-01-08T05:46:30.223Z,99332.00
2023-01-08T05:48:58.789Z,99336.00
2023-01-08T05:51:26.655Z,99324.00
2023-01-08T05:53:54.466Z,99332.00
2023-01-08T05:56:22.336Z,99333.00
2023-01-08T05:58:50.117Z,99340.00
2023-01-08T06:01:18.140Z,99342.00
2023-01-08T06:03:46.211Z,99333.00
2023-01-08T06:06:14.402Z,99333.00
2023-01-08T06:08:42.479Z,99330.00
2023-01-08T06:11:12.318Z,99326.00
2023-01-08T06:13:42.861Z,99326.00
2023-01-08T06:16:11.134Z,99329.00
2023-01-08T06:18:39.113Z,99330.00
2023-01-08T06:21:07.281Z,99338.00
2023-01-08T06:23:35.470Z,99332.00
2023-01-08T06:26:06.526Z,99331.00
2023-01-08T06:28:34.728Z,99338.00
2023-01-08T06:31:02.986Z,99340.00
2023-01-08T06:33:31.505Z,99343.00
2023-01-08T06:36:04.724Z,99337.00
2023-01-08T06:38:34.412Z,99339.00
2023-01-08T06:41:06.961Z,99341.00
2023-01-08T06:43:36.260Z,99341.00
2023-01-08T06:46:06.066Z,99333.00
2023-01-08T06:48:33.803Z,99333.00
2023-01-08T06:51:02.747Z,99332.00
2023-01-08T06:53:31.219Z,99337.00
2023-01-08T06:55:59.274Z,99335.00
2023-01-08T06:58:29.046Z,99333.00
2023-01-08T07:01:01.273Z,99328.00
2023-01-08T07:03:29.351Z,99326.00
2023-01-08T07:05:57.723Z,99326.00
2023-01-08T07:08:25.540Z,99325.00
2023-01-08T07:10:53.501Z,99330.00
2023-01-08T07:13:22.924Z,99335.00
2023-01-08T07:15:50.979Z,99329.00
2023-01-08T07:18:19.023Z,99334.00
2023-01-08T07:20:48.269Z,99334.00
2023-01-08T07:23:16.219Z,99333.00
2023-01-08T07:25:44.111Z,99333.00
2023-01-08T07:28:13.604Z,99330.00
2023-01-08T07:30:41.616Z,99336.00
2023-01-08T07:33:09.517Z,99342.00
2023-01-08T07:35:39.240Z,99340.00
2023-01-08T07:38:06.911Z,99341.00
2023-01-08T07:40:34.885Z,99347.00
2023-01-08T07:43:04.206Z,99348.00
2023-01-08T07:45:32.535Z,99351.00
2023-01-08T07:48:01.240Z,99352.00
2023-01-08T07:50:29.259Z,99360.00
2023-01-08T07:53:01.113Z,99356.00
2023-01-08T07:55:30.181Z,99346.00
2023-01-08T07:57:58.069Z,99340.00
2023-01-08T08:00:25.951Z,99356.00
2023-01-08T08:02:53.866Z,99356.00
2023-01-08T08:05:21.755Z,99352.00
2023-01-08T08:07:49.655Z,99350.00
2023-01-08T08:10:17.475Z,99336.00
2023-01-08T08:12:48.406Z,99339.00
2023-01-08T08:15:16.142Z,99343.00
2023-01-08T08:17:48.221Z,99337.00
2023-01-08T08:20:16.698Z,99334.00
2023-01-08T08:22:44.775Z,99336.00
2023-01-08T08:25:15.469Z,99334.00
2023-01-08T08:27:44.480Z,99336.00
2023-01-08T08:30:13.464Z,99342.00
2023-01-08T08:32:41.156Z,99344.00
2023-01-08T08:35:09.113Z,99339.00
2023-01-08T08:37:37.004Z,99338.00
2023-01-08T08:40:04.992Z,99341.00
2023-01-08T08:42:32.896Z,99336.00
2023-01-08T08:45:00.790Z,99331.00
2023-01-08T08:47:28.637Z,99335.00
2023-01-08T08:49:56.356Z,99331.00
2023-01-08T08:52:24.228Z,99326.00
2023-01-08T08:54:52.018Z,99334.00
2023-01-08T08:57:20.035Z,99327.00
2023-01-08T08:59:47.911Z,99321.00
2023-01-08T09:02:15.927Z,99324.00
2023-01-08T09:04:43.875Z,99308.00
2023-01-08T09:07:11.820Z,99310.00
2023-01-08T09:09:39.610Z,99305.00
2023-01-08T09:12:07.908Z,99305.00
2023-01-08T09:14:35.706Z,99309.00
2023-01-08T09:17:03.482Z,99298.00
2023-01-08T09:19:31.380Z,99296.00
2023-01-08T09:21:59.393Z,99315.00
2023-01-08T09:24:27.104Z,99316.00
2023-01-08T09:26:55.321Z,99315.00
2023-01-08T09:29:23.392Z,99311.00
2023-01-08T09:31:51.187Z,99319.00
2023-01-08T09:34:19.147Z,99323.00
2023-01-08T09:36:47.101Z,99330.00
2023-01-08T09:39:14.818Z,99320.00
2023-01-08T09:41:45.617Z,99330.00
2023-01-08T09:44:17.549Z,99325.00
2023-01-08T09:46:46.629Z,99326.00
2023-01-08T09:49:21.285Z,99319.00
2023-01-08T09:51:49.423Z,99310.00
2023-01-08T09:54:18.440Z,99319.00
2023-01-08T09:56:46.485Z,99326.00
2023-01-08T09:59:17.119Z,99328.00
2023-01-08T10:01:46.113Z,99316.00
2023-01-08T10:04:18.284Z,99321.00
2023-01-08T10:06:54.922Z,99304.00
2023-01-08T10:09:30.641Z,99284.00
2023-01-08T10:12:03.554Z,99277.00
2023-01-08T10:14:39.512Z,99273.00
2023-01-08T10:17:16.432Z,99276.00
2023-01-08T10:19:45.949Z,99268.00
2023-01-08T10:22:17.526Z,99279.00
2023-01-08T10:24:45.306Z,99292.00
2023-01-08T10:27:20.264Z,99276.00
2023-01-08T10:29:50.159Z,99279.00
2023-01-08T10:32:20.726Z,99284.00
2023-01-08T10:34:50.958Z,99276.00
2023-01-08T10:37:29.887Z,99278.00
2023-01-08T10:40:23.009Z,99278.00
2023-01-08T10:42:51.608Z,99285.00
2023-01-08T10:45:28.187Z,99294.00
2023-01-08T10:48:01.283Z,99283.00
2023-01-08T10:50:31.344Z,99286.00
2023-01-08T10:53:04.552Z,99286.00
2023-01-08T10:55:37.683Z,99289.00
2023-01-08T10:58:11.645Z,99282.00
2023-01-08T11:00:39.640Z,99279.00
2023-01-08T11:03:12.190Z,99274.00
2023-01-08T11:05:43.183Z,99264.00
2023-01-08T11:08:20.742Z,99256.00
2023-01-08T11:10:57.772Z,99258.00
2023-01-08T11:13:26.064Z,99259.00
2023-01-08T11:16:06.190Z,99264.00
2023-01-08T11:18:44.929Z,99252.00
2023-01-08T11:21:24.951Z,99247.00
2023-01-08T11:24:16.552Z,99244.00
2023-01-08T11:27:05.592Z,99231.00
2023-01-08T11:29:41.915Z,99230.00
2023-01-08T11:32:21.186Z,99239.00
2023-01-08T11:34:55.516Z,99233.00
2023-01-08T11:37:48.602Z,99236.00
2023-01-08T11:40:19.564Z,99225.00
2023-01-08T11:42:57.960Z,99225.00
2023-01-08T11:45:54.812Z,99212.00
2023-01-08T11:48:37.590Z,99210.00
2023-01-08T11:51:40.226Z,99214.00
2023-01-08T11:54:35.539Z,99206.00
2023-01-08T11:57:25.512Z,99196.00
2023-01-08T11:59:56.559Z,99190.00
2023-01-08T12:02:55.062Z,99182.00
2023-01-08T12:05:32.453Z,99178.00
2023-01-08T12:08:22.557Z,99168.00
2023-01-08T12:11:20.345Z,99174.00
2023-01-08T12:13:59.744Z,99155.00
2023-01-08T12:16:39.978Z,99156.00
2023-01-08T12:19:40.017Z,99147.00
2023-01-08T12:22:41.682Z,99157.00
2023-01-08T12:25:12.492Z,99155.00
2023-01-08T12:28:14.053Z,99153.00
2023-01-08T12:31:09.249Z,99154.00
2023-01-08T12:33:41.239Z,99152.00
2023-01-08T12:36:16.812Z,99153.00
2023-01-08T12:38:46.994Z,99146.00
2023-01-08T12:41:20.068Z,99148.00
2023-01-08T12:44:04.535Z,99138.00
2023-01-08T12:46:37.955Z,99134.00
2023-01-08T12:49:06.890Z,99133.00
2023-01-08T12:52:03.325Z,99133.00
2023-01-08T12:54:37.795Z,99121.00
2023-01-08T12:57:31.126Z,99122.00
2023-01-08T13:00:26.340Z,99121.00
2023-01-08T13:03:05.547Z,99122.00
2023-01-08T13:05:35.631Z,99111.00
2023-01-08T13:08:08.791Z,99127.00
2023-01-08T13:10:39.318Z,99119.00
2023-01-08T13:13:08.673Z,99120.00
2023-01-08T13:15:37.486Z,99101.00
2023-01-08T13:18:19.825Z,99095.00
2023-01-08T13:21:00.467Z,99100.00
2023-01-08T13:23:30.536Z,99089.00
2023-01-08T13:26:03.189Z,99083.00
2023-01-08T13:28:45.816Z,99081.00
2023-01-08T13:31:24.711Z,99077.00
2023-01-08T13:33:53.248Z,99079.00
2023-01-08T13:36:26.274Z,99081.00
2023-01-08T13:39:05.877Z,99080.00
2023-01-08T13:41:56.977Z,99086.00
2023-01-08T13:44:24.806Z,99078.00
2023-01-08T13:47:06.900Z,99074.00
2023-01-08T13:49:34.729Z,99080.00
2023-01-08T13:52:02.777Z,99083.00
2023-01-08T13:54:32.739Z,99082.00
2023-01-08T13:57:06.665Z,99081.00
2023-01-08T13:59:42.691Z,99086.00
2023-01-08T14:02:23.626Z,99086.00
2023-01-08T14:04:51.699Z,99079.00
2023-01-08T14:07:19.703Z,99075.00
2023-01-08T14:09:47.518Z,99074.00
2023-01-08T14:12:26.190Z,99068.00
2023-01-08T14:14:58.267Z,99083.00
2023-01-08T14:17:31.979Z,99087.00
2023-01-08T14:20:00.240Z,99088.00
2023-01-08T14:22:33.388Z,99096.00
2023-01-08T14:25:06.552Z,99092.00
2023-01-08T14:27:35.614Z,99096.00
2023-01-08T14:30:14.018Z,99099.00
2023-01-08T14:32:45.466Z,99096.00
2023-01-08T14:35:18.213Z,99091.00
2023-01-08T14:37:46.638Z,99089.00
2023-01-08T14:40:16.067Z,99089.00
2023-01-08T14:42:47.371Z,99084.00
2023-01-08T14:45:21.015Z,99089.00
2023-01-08T14:47:53.854Z,99088.00
2023-01-08T14:50:44.398Z,99089.00
2023-01-08T14:53:21.120Z,99087.00
2023-01-08T14:55:50.440Z,99071.00
2023-01-08T14:58:22.897Z,99073.00
2023-01-08T15:01:09.523Z,99077.00
2023-01-08T15:03:42.920Z,99080.00
2023-01-08T15:06:11.771Z,99071.00
2023-01-08T15:08:42.166Z,99073.00
2023-01-08T15:11:23.563Z,99076.00
2023-01-08T15:13:53.279Z,99071.00
2023-01-08T15:16:42.884Z,99068.00
2023-01-08T15:19:18.940Z,99059.00
2023-01-08T15:21:48.518Z,99056.00
2023-01-08T15:24:41.218Z,99053.00
2023-01-08T15:27:15.957Z,99050.00
2023-01-08T15:29:52.795Z,99041.00
2023-01-08T15:32:25.163Z,99041.00
2023-01-08T15:34:53.001Z,99040.00
2023-01-08T15:37:20.782Z,99038.00
2023-01-08T15:39:48.652Z,99035.00
2023-01-08T15:42:42.223Z,99042.00
2023-01-08T15:45:17.690Z,99032.00
2023-01-08T15:47:45.750Z,99039.00
2023-01-08T15:50:14.093Z,99035.00
2023-01-08T15:52:43.294Z,99041.00
2023-01-08T15:55:17.076Z,99035.00
2023-01-08T15:57:44.935Z,99032.00
2023-01-08T16:00:17.139Z,99039.00
2023-01-08T16:02:47.409Z,99047.00
2023-01-08T16:05:17.979Z,99040.00
2023-01-08T16:07:46.379Z,99031.00
2023-01-08T16:10:16.335Z,99024.00
2023-01-08T16:12:44.653Z,99025.00
2023-01-08T16:15:13.592Z,99024.00
2023-01-08T16:17:42.095Z,99026.00
2023-01-08T16:20:11.184Z,99026.00
2023-01-08T16:22:39.488Z,99023.00
2023-01-08T16:25:09.571Z,99019.00
2023-01-08T16:27:41.369Z,99014.00
2023-01-08T16:30:15.576Z,99018.00
2023-01-08T16:32:44.168Z,99018.00
2023-01-08T16:35:12.203Z,99013.00
2023-01-08T16:37:40.263Z,99010.00
2023-01-08T16:40:09.189Z,99004.00
2023-01-08T16:42:37.272Z,99006.00
2023-01-08T16:45:05.954Z,99006.00
2023-01-08T16:47:38.615Z,98995.00
2023-01-08T16:50:07.359Z,98997.00
2023-01-08T16:52:35.355Z,98992.00
2023-01-08T16:55:05.423Z,98989.00
2023-01-08T16:57:33.228Z,98999.00
2023-01-08T17:00:01.041Z,98998.00
2023-01-08T17:02:28.962Z,98984.00
2023-01-08T17:04:56.835Z,98979.00
2023-01-08T17:07:24.853Z,98976.00
2023-01-08T17:09:52.791Z,98984.00
2023-01-08T17:12:24.440Z,98975.00
2023-01-08T17:14:52.485Z,98986.00
2023-01-08T17:17:20.413Z,98974.00
2023-01-08T17:19:48.344Z,98975.00
2023-01-08T17:22:16.504Z,98984.00
2023-01-08T17:24:44.530Z,98979.00
2023-01-08T17:27:12.642Z,98977.00
2023-01-08T17:29:40.610Z,98966.00
2023-01-08T17:32:08.449Z,98971.00
2023-01-08T17:34:36.315Z,98969.00
2023-01-08T17:37:04.250Z,98963.00
2023-01-08T17:39:32.219Z,98960.00
2023-01-08T17:42:18.422Z,98969.00
2023-01-08T17:44:46.355Z,98962.00
2023-01-08T17:47:14.380Z,98960.00
2023-01-08T17:49:42.223Z,98956.00
2023-01-08T17:52:10.148Z,98952.00
2023-01-08T17:54:38.858Z,98951.00
2023-01-08T17:57:06.643Z,98942.00
2023-01-08T17:59:34.691Z,98943.00
2023-01-08T18:02:03.055Z,98940.00
2023-01-08T18:04:33.118Z,98939.00
2023-01-08T18:07:01.039Z,98940.00
2023-01-08T18:09:28.928Z,98944.00
2023-01-08T18:11:56.679Z,98948.00
2023-01-08T18:14:26.689Z,98949.00
2023-01-08T18:16:55.876Z,98950.00
2023-01-08T18:19:26.540Z,98954.00
2023-01-08T18:21:55.123Z,98948.00
2023-01-08T18:24:23.190Z,98955.00
2023-01-08T18:26:51.097Z,98955.00
2023-01-08T18:29:18.961Z,98951.00
2023-01-08T18:31:47.126Z,98946.00
2023-01-08T18:34:15.304Z,98944.00
2023-01-08T18:36:43.322Z,98948.00
2023-01-08T18:39:13.017Z,98943.00
2023-01-08T18:41:59.522Z,98937.00
2023-01-08T18:44:27.459Z,98930.00
2023-01-08T18:46:55.448Z,98927.00
2023-01-08T18:49:24.609Z,98927.00
2023-01-08T18:51:52.398Z,98930.00
2023-01-08T18:54:20.282Z,98938.00
2023-01-08T18:56:48.236Z,98935.00
2023-01-08T18:59:15.978Z,98930.00
2023-01-08T19:01:44.964Z,98924.00
2023-01-08T19:04:18.444Z,98926.00
2023-01-08T19:06:46.605Z,98924.00
2023-01-08T19:09:15.840Z,98920.00
2023-01-08T19:11:43.960Z,98921.00
2023-01-08T19:14:13.685Z,98919.00
2023-01-08T19:16:44.175Z,98910.00
2023-01-08T19:19:12.530Z,98908.00
2023-01-08T19:21:41.206Z,98917.00
2023-01-08T19:24:09.378Z,98911.00
2023-01-08T19:26:38.651Z,98912.00
2023-01-08T19:29:06.497Z,98912.00
2023-01-08T19:31:37.260Z,98909.00
2023-01-08T19:34:05.357Z,98903.00
2023-01-08T19:36:34.268Z,98906.00
2023-01-08T19:39:02.388Z,98911.00
2023-01-08T19:41:48.600Z,98913.00
2023-01-08T19:44:19.462Z,98916.00
2023-01-08T19:46:49.743Z,98915.00
2023-01-08T19:49:17.708Z,98919.00
2023-01-08T19:51:45.621Z,98917.00
2023-01-08T19:54:13.712Z,98894.00
2023-01-08T19:56:41.477Z,98887.00
2023-01-08T19:59:09.958Z,98880.00
2023-01-08T20:01:40.897Z,98868.00
2023-01-08T20:04:11.116Z,98864.00
2023-01-08T20:06:39.108Z,98861.00
2023-01-08T20:09:09.189Z,98874.00
2023-01-08T20:11:37.839Z,98871.00
2023-01-08T20:14:06.344Z,98865.00
2023-01-08T20:16:34.430Z,98866.00
2023-01-08T20:19:04.773Z,98864.00
2023-01-08T20:21:34.051Z,98859.00
2023-01-08T20:24:12.217Z,98854.00
2023-01-08T20:26:40.919Z,98858.00
2023-01-08T20:29:10.330Z,98853.00
2023-01-08T20:31:40.162Z,98850.00
2023-01-08T20:34:17.443Z,98846.00
2023-01-08T20:36:45.931Z,98834.00
2023-01-08T20:39:15.479Z,98835.00
2023-01-08T20:41:50.255Z,98832.00
2023-01-08T20:44:32.169Z,98836.00
2023-01-08T20:47:00.786Z,98841.00
2023-01-08T20:49:29.875Z,98838.00
2023-01-08T20:51:59.784Z,98842.00
2023-01-08T20:54:29.253Z,98836.00
2023-01-08T20:56:59.229Z,98827.00
2023-01-08T20:59:27.427Z,98827.00
2023-01-08T21:01:55.414Z,98827.00
2023-01-08T21:04:25.084Z,98829.00
2023-01-08T21:06:53.097Z,98826.00
2023-01-08T21:09:21.067Z,98823.00
2023-01-08T21:11:48.923Z,98813.00
2023-01-08T21:14:16.852Z,98820.00
2023-01-08T21:16:45.153Z,98811.00
2023-01-08T21:19:15.488Z,98808.00
2023-01-08T21:21:43.601Z,98812.00
2023-01-08T21:24:12.928Z,98802.00
2023-01-08T21:26:40.877Z,98802.00
2023-01-08T21:29:10.446Z,98796.00
2023-01-08T21:31:40.457Z,98797.00
2023-01-08T21:34:09.088Z,98801.00
2023-01-08T21:36:39.377Z,98792.00
2023-01-08T21:39:07.642Z,98783.00
2023-01-08T21:41:54.314Z,98779.00
2023-01-08T21:45:08.529Z,98778.00
2023-01-08T21:47:36.441Z,98772.00
2023-01-08T21:50:04.420Z,98767.00
2023-01-08T21:52:53.855Z,98765.00
2023-01-08T21:55:21.921Z,98763.00
2023-01-08T21:57:49.873Z,98754.00
2023-01-08T22:00:17.856Z,98752.00
2023-01-08T22:02:46.173Z,98755.00
2023-01-08T22:05:14.152Z,98745.00
2023-01-08T22:07:41.843Z,98747.00
2023-01-08T22:10:10.549Z,98750.00
2023-01-08T22:12:38.387Z,98741.00
2023-01-08T22:15:07.712Z,98745.00
2023-01-08T22:17:35.506Z,98733.00
2023-01-08T22:20:05.923Z,98730.00
2023-01-08T22:22:33.912Z,98726.00
2023-01-08T22:25:01.733Z,98723.00
2023-01-08T22:27:30.508Z,98717.00
2023-01-08T22:29:58.325Z,98709.00
2023-01-08T22:32:26.093Z,98707.00
2023-01-08T22:34:53.891Z,98695.00
2023-01-08T22:37:22.476Z,98693.00
2023-01-08T22:39:50.795Z,98683.00
2023-01-08T22:42:18.577Z,98674.00
2023-01-08T22:44:46.378Z,98672.00
2023-01-08T22:47:14.413Z,98668.00
2023-01-08T22:49:42.862Z,98680.00
2023-01-08T22:52:11.707Z,98681.00
2023-01-08T22:54:39.919Z,98678.00
2023-01-08T22:57:08.331Z,98668.00
2023-01-08T22:59:36.249Z,98668.00
2023-01-08T23:02:03.996Z,98673.00
2023-01-08T23:04:31.910Z,98672.00
2023-01-08T23:06:59.722Z,98664.00
2023-01-08T23:09:27.681Z,98669.00
2023-01-08T23:11:55.568Z,98670.00
2023-01-08T23:14:23.566Z,98663.00
2023-01-08T23:16:51.607Z,98656.00
2023-01-08T23:19:19.742Z,98644.00
2023-01-08T23:21:47.448Z,98660.00
2023-01-08T23:24:15.487Z,98658.00
2023-01-08T23:26:43.904Z,98652.00
2023-01-08T23:29:11.848Z,98620.00
2023-01-08T23:31:39.919Z,98638.00
2023-01-08T23:34:08.263Z,98640.00
2023-01-08T23:36:36.187Z,98637.00
2023-01-08T23:39:04.248Z,98625.00
2023-01-08T23:41:35.483Z,98625.00
2023-01-08T23:44:09.278Z,98611.00
2023-01-08T23:46:37.758Z,98616.00
2023-01-08T23:49:07.385Z,98621.00
2023-01-08T23:51:35.587Z,98605.00
2023-01-08T23:54:03.896Z,98599.00
2023-01-08T23:56:31.996Z,98593.00
2023-01-08T23:58:59.821Z,98605.00
